Time;durP1;ratioP1;P1;durP2;ratioP2;P2;SDS_P1;SDS_P2;PMS_P1;PMS_P2;Temp;Humidity;BMP_temperature;BMP_pressure;BME280_temperature;BME280_humidity;BME280_pressure;Samples;Min_cycle;Max_cycle;Signal;HPM_P1;HPM_P2
2021/09/22 13:26:34;;;;;;;8.70;4.55;;;22.70;79.80;;;23.85;42.58;101644.78;6081267;22;3361722;-85
2021/09/22 13:29:03;;;;;;;5.78;4.22;;;22.60;78.90;;;23.98;43.16;101645.84;6114155;23;20096;-83
2021/09/22 13:31:34;;;;;;;7.85;4.32;;;22.50;80.00;;;24.38;42.25;101652.66;6158210;23;20009;-84
2021/09/22 13:34:02;;;;;;;11.23;4.70;;;22.70;78.00;;;23.85;42.87;101641.91;6155788;23;20057;-84
2021/09/22 13:39:16;;;;;;;6.05;3.75;;;22.60;78.70;;;24.27;41.85;101635.72;6136165;23;20024;-85
2021/09/22 13:41:46;;;;;;;8.88;4.20;;;22.60;78.10;;;24.31;42.91;101644.19;6233330;23;20043;-84
2021/09/22 13:44:13;;;;;;;5.75;4.07;;;22.60;80.70;;;24.33;43.04;101641.75;6167084;23;20004;-85
2021/09/22 13:46:45;;;;;;;7.80;4.38;;;22.50;81.30;;;24.33;42.90;101639.69;6125017;23;20024;-84
2021/09/22 13:49:12;;;;;;;7.63;4.88;;;22.50;80.10;;;24.28;42.89;101639.34;6142161;23;20006;-83
2021/09/22 13:51:45;;;;;;;8.07;4.30;;;22.40;80.60;;;24.01;42.17;101627.88;6126029;23;20084;-83
2021/09/22 13:54:15;;;;;;;6.22;4.63;;;22.40;78.60;;;23.86;43.24;101632.09;6179394;23;20513;-85
2021/09/22 13:56:44;;;;;;;10.32;5.70;;;22.30;80.50;;;23.39;43.59;101623.25;6164066;23;20123;-89
2021/09/22 13:59:11;;;;;;;5.97;4.93;;;22.10;79.60;;;23.38;43.71;101618.75;6164803;23;20150;-87
2021/09/22 14:01:39;;;;;;;6.85;4.00;;;22.00;79.60;;;23.39;44.93;101617.53;6167729;23;20009;-86
2021/09/22 14:04:05;;;;;;;8.00;4.43;;;21.90;82.60;;;23.44;43.85;101621.97;6188282;23;20010;-87
2021/09/22 14:06:31;;;;;;;9.45;4.63;;;21.90;81.10;;;22.92;44.65;101609.84;6166659;23;20009;-85
2021/09/22 14:08:57;;;;;;;9.95;4.80;;;21.70;80.70;;;23.04;45.40;101610.16;6163822;23;20010;-87
2021/09/22 14:11:23;;;;;;;10.95;4.32;;;21.60;82.70;;;23.06;46.84;101604.81;6163625;23;20021;-86
2021/09/22 14:13:49;;;;;;;6.63;4.38;;;21.60;86.20;;;22.82;45.76;101607.88;6163127;23;20017;-87
2021/09/22 14:16:15;;;;;;;8.80;4.97;;;21.40;83.90;;;22.78;46.70;101602.22;6162803;23;20005;-86
2021/09/22 14:18:42;;;;;;;8.63;5.25;;;21.40;85.00;;;22.66;46.08;101607.59;6163135;23;20088;-88
2021/09/22 14:21:08;;;;;;;8.93;4.78;;;21.30;84.50;;;22.51;46.46;101601.97;6162720;23;20013;-86
2021/09/22 14:23:34;;;;;;;6.53;4.07;;;21.10;84.30;;;22.42;46.75;101593.09;6162388;23;20013;-87
2021/09/22 14:26:00;;;;;;;7.75;4.40;;;21.00;85.20;;;22.37;47.24;101590.69;6162599;23;20051;-87
2021/09/22 14:28:27;;;;;;;10.10;5.38;;;20.90;86.60;;;22.03;47.21;101593.31;6159301;23;20380;-87
2021/09/22 14:30:53;;;;;;;4.75;4.00;;;20.70;85.90;;;21.91;48.55;101588.09;6159900;23;20020;-85
2021/09/22 14:33:20;;;;;;;7.88;4.80;;;20.60;87.80;;;21.87;49.05;101589.28;6161079;23;20143;-84
2021/09/22 14:35:48;;;;;;;7.07;3.70;;;20.60;88.40;;;21.97;49.04;101577.91;6160265;23;20092;-87
2021/09/22 14:38:14;;;;;;;6.07;4.13;;;20.60;89.30;;;21.96;48.59;101584.81;6160725;23;20065;-85
2021/09/22 14:40:45;;;;;;;7.80;4.32;;;20.50;88.80;;;21.90;49.41;101580.78;6159060;23;20009;-88
2021/09/22 14:43:11;;;;;;;10.40;6.40;;;20.60;89.50;;;21.93;49.14;101585.63;6162852;23;20010;-85
2021/09/22 14:45:37;;;;;;;12.55;5.90;;;20.60;89.10;;;21.94;49.56;101572.22;6160423;23;20016;-87
2021/09/22 14:48:04;;;;;;;11.55;6.57;;;20.60;89.90;;;21.77;48.80;101562.53;6160761;23;20412;-84
2021/09/22 14:50:31;;;;;;;7.43;4.78;;;20.40;88.80;;;21.73;50.32;101561.75;6160758;23;20013;-83
2021/09/22 14:52:58;;;;;;;10.57;5.88;;;20.30;90.80;;;21.63;49.69;101562.59;6160750;23;20009;-85
2021/09/22 14:55:25;;;;;;;12.68;6.15;;;20.30;90.00;;;21.67;49.74;101554.88;6160795;23;20025;-84
2021/09/22 14:57:51;;;;;;;8.80;6.75;;;20.30;90.00;;;21.50;49.35;101553.72;6185625;23;20006;-86
2021/09/22 15:00:24;;;;;;;12.65;6.47;;;20.30;89.10;;;21.41;49.99;101547.66;6162922;23;20009;-86
2021/09/22 15:02:52;;;;;;;10.93;6.30;;;20.20;90.00;;;21.45;50.34;101550.47;6162731;23;20040;-86
2021/09/22 15:05:25;;;;;;;9.70;6.18;;;20.20;90.30;;;21.52;50.02;101539.88;6163586;23;20005;-88
2021/09/22 15:07:52;;;;;;;11.02;6.13;;;20.20;90.30;;;21.28;51.17;101532.25;6164744;23;20009;-87
2021/09/22 15:10:20;;;;;;;9.10;5.38;;;20.20;90.70;;;21.41;50.95;101522.06;6164509;23;20020;-87
2021/09/22 15:12:47;;;;;;;10.93;5.28;;;20.20;91.20;;;21.44;50.83;101534.66;6193226;23;20443;-87
2021/09/22 15:15:17;;;;;;;10.02;6.25;;;20.10;91.00;;;21.29;50.80;101522.50;6173374;23;20055;-85
2021/09/22 15:17:44;;;;;;;9.50;5.07;;;20.00;90.90;;;21.23;52.64;101524.13;6158672;23;20033;-85
2021/09/22 15:20:14;;;;;;;8.45;4.20;;;19.90;92.80;;;21.06;53.67;101530.66;6158235;23;20013;-84
2021/09/22 15:22:40;;;;;;;10.88;5.55;;;19.70;93.40;;;20.89;53.56;101520.94;6159333;23;20014;-87
2021/09/22 15:25:09;;;;;;;14.88;6.43;;;19.60;93.30;;;20.78;53.16;101522.16;6159976;23;20041;-84
2021/09/22 15:27:38;;;;;;;8.88;4.97;;;19.50;92.90;;;20.82;54.01;101523.78;6159049;23;20343;-87
2021/09/22 15:30:13;;;;;;;8.63;6.00;;;19.50;93.80;;;20.73;52.99;101525.44;6161235;23;20002;-86
2021/09/22 15:32:39;;;;;;;8.30;5.70;;;19.40;92.90;;;20.63;53.47;101512.84;6161025;23;20110;-86
2021/09/22 15:35:08;;;;;;;7.63;4.90;;;19.30;93.30;;;20.57;53.56;101516.50;6185454;23;20005;-86
2021/09/22 15:37:34;;;;;;;6.60;4.95;;;19.30;93.50;;;20.46;54.70;101513.66;6186130;23;20009;-87
2021/09/22 15:40:04;;;;;;;9.60;5.97;;;19.10;95.00;;;20.38;55.59;101512.03;6162980;23;20379;-83
2021/09/22 15:42:33;;;;;;;9.25;6.15;;;19.10;95.40;;;20.30;55.44;101516.06;6159504;23;20017;-84
2021/09/22 15:45:01;;;;;;;10.95;6.03;;;19.00;94.80;;;20.27;55.13;101516.88;6160254;23;20009;-84
2021/09/22 15:47:27;;;;;;;12.55;6.80;;;18.90;94.90;;;20.18;54.49;101505.09;6161103;23;20028;-85
2021/09/22 15:49:54;;;;;;;9.38;5.68;;;18.90;94.60;;;20.09;54.92;101505.50;6160882;23;20006;-85
2021/09/22 15:52:20;;;;;;;12.18;7.72;;;18.90;95.10;;;19.98;55.02;101499.81;6158679;23;20345;-83
2021/09/22 15:54:46;;;;;;;10.52;6.25;;;18.80;94.90;;;20.02;56.06;101508.31;6159051;23;20436;-85
2021/09/22 15:57:16;;;;;;;13.30;6.40;;;18.80;95.80;;;19.92;55.49;101497.75;6160416;23;20013;-83
2021/09/22 15:59:42;;;;;;;12.75;6.95;;;18.80;95.30;;;19.95;55.53;101506.28;6161068;23;20017;-86
2021/09/22 16:02:08;;;;;;;7.53;5.88;;;18.80;95.60;;;19.86;55.21;101505.03;6161652;23;20010;-85
2021/09/22 16:04:35;;;;;;;10.57;6.63;;;18.70;95.30;;;19.77;54.69;101502.59;6161998;23;20067;-87
2021/09/22 16:07:03;;;;;;;7.95;5.95;;;18.70;94.90;;;19.76;54.87;101500.97;6162551;23;20020;-87
2021/09/22 16:09:33;;;;;;;9.90;5.82;;;18.60;95.10;;;19.68;55.22;101496.47;6162522;23;20343;-86
2021/09/22 16:11:59;;;;;;;11.32;5.40;;;18.50;95.40;;;19.60;55.96;101494.84;6160914;23;20002;-84
2021/09/22 16:14:26;;;;;;;12.50;6.20;;;18.50;96.00;;;19.54;55.72;101493.59;6160362;23;20012;-85
2021/09/22 16:16:56;;;;;;;10.68;6.35;;;18.40;95.90;;;19.55;55.93;101492.41;6160347;23;20455;-85
2021/09/22 16:19:22;;;;;;;8.40;5.43;;;18.40;96.00;;;19.51;56.46;101482.25;6160163;23;20015;-85
2021/09/22 16:21:48;;;;;;;11.10;5.82;;;18.30;96.60;;;19.45;56.20;101493.97;6184822;23;20065;-84
2021/09/22 16:24:14;;;;;;;8.65;5.65;;;18.30;96.70;;;19.36;56.28;101484.19;6159126;23;20016;-84
2021/09/22 16:26:40;;;;;;;10.80;5.95;;;18.20;96.60;;;19.30;56.02;101482.94;6159573;23;20009;-85
2021/09/22 16:29:08;;;;;;;7.18;4.90;;;18.10;96.50;;;19.26;56.61;101482.13;6160714;23;20005;-85
2021/09/22 16:31:34;;;;;;;9.18;4.38;;;18.00;97.10;;;19.18;56.24;101481.25;6160001;23;20014;-84
2021/09/22 16:34:01;;;;;;;7.13;4.70;;;18.00;97.40;;;19.08;57.68;101469.88;6160209;23;20010;-84
2021/09/22 16:36:28;;;;;;;12.52;5.63;;;17.90;98.30;;;18.90;57.85;101470.59;6184656;23;20010;-85
2021/09/22 16:38:54;;;;;;;9.25;5.43;;;17.70;98.40;;;18.80;57.95;101470.53;6160473;23;20032;-86
2021/09/22 16:41:20;;;;;;;8.43;5.20;;;17.70;98.50;;;18.78;58.09;101467.28;6160458;23;20459;-85
2021/09/22 16:43:47;;;;;;;9.70;5.53;;;17.60;99.00;;;18.73;58.12;101464.81;6161311;23;20423;-86
2021/09/22 16:46:13;;;;;;;7.50;5.18;;;17.60;99.20;;;18.69;58.31;101469.63;6161889;23;20009;-84
2021/09/22 16:48:40;;;;;;;8.73;4.65;;;17.50;99.90;;;18.61;58.67;101462.31;6162781;23;20292;-84
2021/09/22 16:51:06;;;;;;;11.23;5.60;;;17.50;99.90;;;18.57;58.95;101461.47;6186500;23;20009;-85
2021/09/22 16:53:33;;;;;;;10.18;5.65;;;17.40;99.90;;;18.51;59.16;101457.38;6185541;23;20108;-84
2021/09/22 16:55:59;;;;;;;11.55;5.78;;;17.40;99.90;;;18.42;59.11;101452.03;6160863;23;20428;-85
2021/09/22 16:58:27;;;;;;;6.88;5.00;;;17.30;99.90;;;18.41;59.29;101454.06;6161259;23;20006;-85
2021/09/22 17:00:53;;;;;;;8.45;5.07;;;17.30;99.90;;;18.34;59.91;101456.81;6161085;23;20035;-84
2021/09/22 17:03:18;;;;;;;7.68;4.68;;;17.20;99.90;;;18.22;60.47;101456.31;6161510;23;20436;-84
2021/09/22 17:05:47;;;;;;;8.23;5.13;;;17.00;99.90;;;18.11;61.23;101458.25;6161913;23;20044;-84
2021/09/22 17:08:14;;;;;;;6.85;4.72;;;16.90;99.90;;;18.00;61.54;101462.97;6183496;23;20356;-87
2021/09/22 17:10:42;;;;;;;7.82;4.18;;;16.80;99.90;;;17.83;62.66;101465.22;6158923;23;20021;-86
2021/09/22 17:13:10;;;;;;;7.63;4.38;;;16.60;99.90;;;17.62;64.19;101465.00;6159448;23;20408;-86
2021/09/22 17:15:37;;;;;;;8.35;5.25;;;16.40;99.90;;;17.39;65.12;101459.47;6160809;23;20435;-84
2021/09/22 17:18:05;;;;;;;6.75;4.03;;;16.30;99.90;;;17.21;65.73;101460.44;6160126;23;20020;-86
2021/09/22 17:20:33;;;;;;;7.78;4.45;;;16.10;99.90;;;17.05;66.83;101459.84;6160011;23;20384;-84
2021/09/22 17:22:59;;;;;;;7.45;4.32;;;15.90;99.90;;;16.89;67.92;101462.03;6160129;23;20010;-85
2021/09/22 17:25:27;;;;;;;8.45;4.85;;;15.70;99.90;;;16.75;68.67;101463.44;6184636;23;20015;-85
2021/09/22 17:27:56;;;;;;;8.55;5.25;;;15.60;99.90;;;16.63;69.23;101465.66;6160151;23;20115;-86
2021/09/22 17:30:25;;;;;;;7.05;4.63;;;15.50;99.90;;;16.54;69.85;101473.53;6185097;23;20010;-87
2021/09/22 17:32:52;;;;;;;9.15;4.93;;;15.40;99.90;;;16.42;70.32;101470.91;6162773;23;20002;-87
2021/09/22 17:35:18;;;;;;;9.40;4.60;;;15.20;99.90;;;16.28;70.66;101468.69;6170195;23;20016;-88
2021/09/22 17:37:44;;;;;;;8.88;4.97;;;15.10;99.90;;;16.15;71.63;101470.88;6161885;23;20006;-85
2021/09/22 17:40:15;;;;;;;7.60;4.78;;;15.00;99.90;;;16.05;72.15;101468.72;6159503;23;20469;-86
2021/09/22 17:42:42;;;;;;;8.85;5.55;;;14.90;99.90;;;15.97;72.67;101464.13;6159264;23;20024;-88
2021/09/22 17:45:08;;;;;;;7.47;4.93;;;14.90;99.90;;;15.86;72.97;101474.38;6160395;23;20016;-85
2021/09/22 17:47:34;;;;;;;11.02;5.93;;;14.70;99.90;;;15.78;73.80;101472.63;6158130;23;20009;-84
2021/09/22 17:50:00;;;;;;;7.80;4.65;;;14.60;99.90;;;15.69;74.18;101472.06;6159324;23;20016;-85
2021/09/22 17:52:27;;;;;;;13.05;5.35;;;14.50;99.90;;;15.61;75.12;101484.34;6157445;23;20005;-86
2021/09/22 17:54:53;;;;;;;12.73;6.40;;;14.50;99.90;;;15.53;76.08;101476.97;6159754;23;20397;-85
2021/09/22 17:57:18;;;;;;;11.00;5.13;;;14.40;99.90;;;15.47;76.27;101482.06;6160117;23;20008;-86
2021/09/22 17:59:44;;;;;;;9.25;5.03;;;14.30;99.90;;;15.35;76.72;101472.94;6183828;23;20321;-87
2021/09/22 18:02:11;;;;;;;7.30;4.65;;;14.30;99.90;;;15.25;77.33;101480.78;6183758;23;20061;-87
2021/09/22 18:04:37;;;;;;;8.23;5.22;;;14.20;99.90;;;15.19;77.66;101475.81;6159284;23;20017;-85
2021/09/22 18:07:04;;;;;;;8.40;5.32;;;14.10;99.90;;;15.06;78.57;101474.31;6158301;23;20439;-85
2021/09/22 18:09:35;;;;;;;8.52;4.97;;;14.00;99.90;;;14.97;79.46;101471.72;6158058;23;20014;-84
2021/09/22 18:12:01;;;;;;;10.38;5.53;;;13.90;99.90;;;14.87;80.13;101463.84;6159311;23;20013;-86
2021/09/22 18:14:27;;;;;;;10.30;5.85;;;13.80;99.90;;;14.82;80.50;101455.72;6158109;23;20006;-86
2021/09/22 18:16:53;;;;;;;13.48;6.32;;;13.70;99.90;;;14.78;80.79;101460.44;6158134;23;20084;-86
2021/09/22 18:19:20;;;;;;;9.07;5.47;;;13.70;99.90;;;14.76;81.25;101460.81;6157847;23;20017;-85
2021/09/22 18:21:46;;;;;;;9.63;5.60;;;13.70;99.90;;;14.74;81.24;101462.34;6157981;23;20064;-85
2021/09/22 18:24:12;;;;;;;10.05;6.40;;;13.60;99.90;;;14.66;81.64;101458.56;6157668;23;20009;-84
2021/09/22 18:26:38;;;;;;;9.75;6.45;;;13.60;99.90;;;14.61;82.47;101444.78;6157851;23;20017;-86
2021/09/22 18:29:06;;;;;;;10.82;6.97;;;13.50;99.90;;;14.59;82.71;101444.34;6159497;23;20312;-84
2021/09/22 18:31:35;;;;;;;11.02;7.32;;;13.50;99.90;;;14.55;83.42;101454.69;6157101;23;20447;-84
2021/09/22 18:34:06;;;;;;;12.80;8.00;;;13.50;99.90;;;14.49;83.94;101444.91;6159730;23;20006;-86
2021/09/22 18:36:33;;;;;;;10.65;7.55;;;13.50;99.90;;;14.48;84.78;101442.47;6157443;23;20033;-84
2021/09/22 18:38:59;;;;;;;11.57;6.95;;;13.50;99.90;;;14.45;84.70;101440.41;6158315;23;20044;-85
2021/09/22 18:41:25;;;;;;;13.85;8.70;;;13.40;99.90;;;14.43;84.85;101440.75;6157185;23;20044;-85
2021/09/22 18:43:52;;;;;;;14.30;7.72;;;13.50;99.90;;;14.49;85.14;101439.28;6157228;23;20016;-83
2021/09/22 18:46:18;;;;;;;13.50;8.77;;;13.50;99.90;;;14.58;85.77;101441.91;6182311;23;20013;-85
2021/09/22 18:48:44;;;;;;;11.68;8.05;;;13.60;99.90;;;14.60;85.71;101434.75;6159006;23;20021;-87
2021/09/22 18:51:10;;;;;;;14.18;8.43;;;13.60;99.90;;;14.61;85.85;101432.72;6158833;23;20014;-85
2021/09/22 18:53:36;;;;;;;13.15;8.70;;;13.70;99.90;;;14.63;86.56;101436.00;6157147;23;20035;-86
2021/09/22 18:56:03;;;;;;;14.75;8.43;;;13.60;99.90;;;14.66;87.24;101433.28;6157127;23;20424;-83
2021/09/22 18:58:29;;;;;;;17.73;8.70;;;13.70;99.90;;;14.69;86.46;101435.34;6182327;23;20009;-84
2021/09/22 19:00:55;;;;;;;15.55;8.30;;;13.70;99.90;;;14.73;86.49;101432.63;6181902;23;20017;-86
2021/09/22 19:03:21;;;;;;;10.50;7.72;;;13.70;99.90;;;14.67;86.59;101443.31;6156963;23;20045;-86
2021/09/22 19:05:47;;;;;;;11.82;8.27;;;13.60;99.90;;;14.61;86.49;101446.78;6156656;23;20017;-84
2021/09/22 19:08:14;;;;;;;17.20;8.25;;;13.60;99.90;;;14.55;86.97;101445.44;6158388;23;20024;-84
2021/09/22 19:10:41;;;;;;;12.30;8.95;;;13.50;99.90;;;14.48;87.39;101443.28;6157356;23;20073;-86
2021/09/22 19:13:07;;;;;;;15.80;8.20;;;13.60;99.90;;;14.45;88.18;101441.19;6156177;23;20013;-83
2021/09/22 19:15:34;;;;;;;10.70;7.78;;;13.50;99.90;;;14.43;87.79;101452.00;6157187;23;20005;-84
2021/09/22 19:18:02;;;;;;;12.65;7.80;;;13.50;99.90;;;14.37;88.33;101450.66;6156400;23;20458;-84
2021/09/22 19:20:28;;;;;;;13.55;7.55;;;13.40;99.90;;;14.34;88.43;101444.94;6156455;23;20009;-83
2021/09/22 19:22:54;;;;;;;13.52;8.48;;;13.40;99.90;;;14.26;89.12;101439.09;6157215;23;20012;-85
2021/09/22 19:25:21;;;;;;;13.40;8.43;;;13.30;99.90;;;14.22;90.05;101446.63;6156399;23;20515;-84
2021/09/22 19:27:47;;;;;;;15.38;8.23;;;13.20;99.90;;;14.20;90.13;101439.75;6157599;23;20036;-84
2021/09/22 19:30:14;;;;;;;13.93;8.45;;;13.20;99.90;;;14.16;89.82;101439.66;6157729;23;20010;-85
2021/09/22 19:32:41;;;;;;;12.88;8.10;;;13.20;99.90;;;14.13;89.81;101434.75;6158255;23;20072;-87
2021/09/22 19:35:08;;;;;;;16.55;8.00;;;13.20;99.90;;;14.07;89.51;101436.22;6159466;23;20399;-85
2021/09/22 19:37:35;;;;;;;12.15;8.23;;;13.00;99.90;;;13.96;89.43;101435.16;6184300;23;20032;-84
2021/09/22 19:40:01;;;;;;;16.65;8.88;;;13.00;99.90;;;13.88;90.41;101438.94;6159679;23;20013;-84
2021/09/22 19:42:27;;;;;;;15.35;9.00;;;12.90;99.90;;;13.85;91.56;101441.66;6184311;23;20455;-85
2021/09/22 19:44:53;;;;;;;15.88;8.73;;;12.80;99.90;;;13.78;91.39;101430.22;6159220;23;20013;-86
2021/09/22 19:47:22;;;;;;;14.00;8.85;;;12.80;99.90;;;13.73;91.44;101434.13;6160111;23;20092;-84
2021/09/22 19:49:48;;;;;;;14.75;8.35;;;12.70;99.90;;;13.70;91.58;101427.25;6158375;23;20020;-82
2021/09/22 19:52:16;;;;;;;14.02;8.50;;;12.70;99.90;;;13.62;91.97;101428.22;6159482;23;20009;-84
2021/09/22 19:54:43;;;;;;;16.17;9.20;;;12.60;99.90;;;13.55;92.28;101419.59;6155569;23;20379;-84
2021/09/22 19:57:09;;;;;;;16.63;10.68;;;12.60;99.90;;;13.50;92.92;101428.31;6158432;23;20104;-84
2021/09/22 19:59:35;;;;;;;17.98;9.95;;;12.50;99.90;;;13.40;93.09;101420.41;6159185;23;20006;-84
2021/09/22 20:02:01;;;;;;;15.88;10.73;;;12.40;99.90;;;13.36;93.72;101424.25;6160007;23;20006;-82
2021/09/22 20:04:35;;;;;;;15.23;9.45;;;12.30;99.90;;;13.29;94.24;101421.28;6183815;23;20010;-84
2021/09/22 20:07:06;;;;;;;14.52;9.43;;;12.30;99.90;;;13.25;94.33;101418.38;6160676;23;20005;-84
2021/09/22 20:09:36;;;;;;;18.33;10.65;;;12.20;99.90;;;13.22;94.84;101410.69;6159490;23;20085;-85
2021/09/22 20:12:04;;;;;;;16.40;10.32;;;12.20;99.90;;;13.18;95.50;101409.75;6160614;23;20006;-84
2021/09/22 20:14:30;;;;;;;16.85;10.43;;;12.20;99.90;;;13.17;95.18;101400.50;6158666;23;20006;-84
2021/09/22 20:17:00;;;;;;;15.68;10.07;;;12.20;99.90;;;13.18;95.53;101404.16;6161306;23;20001;-83
2021/09/22 20:19:27;;;;;;;19.65;11.30;;;12.20;99.90;;;13.19;96.08;101402.97;6159835;23;20006;-86
2021/09/22 20:21:56;;;;;;;16.27;11.93;;;12.20;99.90;;;13.27;96.76;101401.16;6158909;23;20657;-87
2021/09/22 20:24:25;;;;;;;20.08;12.13;;;12.20;99.90;;;13.35;95.86;101395.41;6161209;23;20009;-86
2021/09/22 20:26:52;;;;;;;18.10;11.90;;;12.30;99.90;;;13.36;95.38;101394.22;6158792;23;20017;-85
2021/09/22 20:29:19;;;;;;;22.80;12.02;;;12.30;99.90;;;13.38;95.29;101396.69;6161837;23;20006;-87
2021/09/22 20:31:46;;;;;;;19.05;11.75;;;12.30;99.90;;;13.40;95.50;101386.72;6159010;23;20009;-85
2021/09/22 20:34:12;;;;;;;17.50;11.43;;;12.40;99.90;;;13.41;95.25;101390.34;6160006;23;20002;-85
2021/09/22 20:36:40;;;;;;;16.40;11.65;;;12.40;99.90;;;13.38;95.58;101393.88;6163490;23;20005;-86
2021/09/22 20:39:07;;;;;;;20.90;12.23;;;12.40;99.90;;;13.40;95.66;101395.13;6165354;23;20012;-81
2021/09/22 20:41:33;;;;;;;16.95;11.70;;;12.40;99.90;;;13.38;95.79;101391.06;6162698;23;20013;-85
2021/09/22 20:44:00;;;;;;;22.42;12.48;;;12.40;99.90;;;13.37;95.48;101390.25;6144285;23;20481;-83
2021/09/22 20:46:27;;;;;;;16.13;11.95;;;12.40;99.90;;;13.37;95.67;101395.03;6160390;23;20036;-82
2021/09/22 20:48:55;;;;;;;17.98;11.98;;;12.40;99.90;;;13.35;95.71;101391.78;6160874;23;19998;-84
2021/09/22 20:51:28;;;;;;;21.23;12.52;;;12.30;99.90;;;13.31;95.47;101394.50;6161037;23;20017;-85
2021/09/22 20:53:55;;;;;;;19.98;12.73;;;12.40;99.90;;;13.26;96.17;101389.13;6156437;23;20005;-84
2021/09/22 20:56:22;;;;;;;18.92;12.05;;;12.30;99.90;;;13.25;96.02;101393.13;6138148;23;20045;-85
2021/09/22 20:58:49;;;;;;;20.55;11.95;;;12.30;99.90;;;13.19;95.96;101388.94;6131947;23;20002;-83
2021/09/22 21:01:17;;;;;;;22.95;13.02;;;12.20;99.90;;;13.15;96.14;101400.06;6157248;23;20033;-84
2021/09/22 21:03:43;;;;;;;22.15;14.38;;;12.20;99.90;;;13.11;96.24;101396.34;6156438;23;20009;-84
2021/09/22 21:06:09;;;;;;;21.92;14.25;;;12.10;99.90;;;13.07;96.43;101392.56;6154669;23;20022;-83
2021/09/22 21:08:35;;;;;;;17.20;13.60;;;12.10;99.90;;;13.07;96.89;101392.56;6132647;23;20017;-86
2021/09/22 21:11:08;;;;;;;23.90;13.98;;;12.10;99.90;;;13.02;96.54;101389.22;6139985;23;20014;-85
2021/09/22 21:13:34;;;;;;;20.55;12.82;;;12.00;99.90;;;12.99;96.81;101395.53;6137058;23;20006;-86
2021/09/22 21:16:00;;;;;;;21.33;13.75;;;12.00;99.90;;;12.92;96.67;101396.16;6130264;23;20017;-83
2021/09/22 21:18:27;;;;;;;23.25;14.18;;;11.90;99.90;;;12.81;97.79;101392.19;6132025;23;20108;-84
2021/09/22 21:20:54;;;;;;;24.63;14.20;;;11.80;99.90;;;12.82;98.52;101385.44;6134353;23;20018;-84
2021/09/22 21:23:20;;;;;;;21.30;13.20;;;11.90;99.90;;;12.79;97.91;101388.13;6131666;23;20101;-84
2021/09/22 21:25:46;;;;;;;19.38;13.50;;;11.80;99.90;;;12.76;98.62;101369.22;6130082;23;20006;-84
2021/09/22 21:28:14;;;;;;;24.60;14.35;;;11.80;99.90;;;12.75;98.89;101373.22;6135205;23;20036;-85
2021/09/22 21:30:41;;;;;;;21.83;13.90;;;11.80;99.90;;;12.79;98.54;101374.13;6133998;23;20010;-82
2021/09/22 21:33:08;;;;;;;25.95;14.70;;;11.80;99.90;;;12.82;98.00;101379.00;6138867;23;20124;-83
2021/09/22 21:35:34;;;;;;;28.38;15.23;;;11.80;99.90;;;12.75;98.63;101376.03;6063355;23;20014;-85
2021/09/22 21:38:01;;;;;;;22.90;13.68;;;11.80;99.90;;;12.68;98.29;101376.63;6133765;23;20012;-85
2021/09/22 21:40:27;;;;;;;21.42;14.20;;;11.80;99.90;;;12.64;99.10;101373.72;6158030;23;20347;-88
2021/09/22 21:42:55;;;;;;;24.30;14.63;;;11.70;99.90;;;12.68;98.42;101377.41;6133936;23;20060;-84
2021/09/22 21:45:24;;;;;;;22.55;13.25;;;11.70;99.90;;;12.63;98.74;101377.66;6159629;23;20010;-84
2021/09/22 21:47:51;;;;;;;21.60;12.05;;;11.60;99.90;;;12.58;99.14;101365.91;6138394;23;20009;-83
2021/09/22 21:50:17;;;;;;;20.40;13.05;;;11.60;99.90;;;12.56;99.28;101368.22;6136083;23;20025;-85
2021/09/22 21:52:43;;;;;;;23.73;13.88;;;11.50;99.90;;;12.55;99.28;101358.22;6093995;23;20467;-85
2021/09/22 21:55:11;;;;;;;23.98;13.25;;;11.60;99.90;;;12.39;99.94;101352.53;6118514;23;20021;-84
2021/09/22 21:57:44;;;;;;;24.92;14.20;;;11.50;99.90;;;12.43;100.00;101358.22;6140909;23;20014;-82
2021/09/22 22:00:18;;;;;;;21.77;14.77;;;11.50;99.90;;;12.46;100.00;101357.50;6140959;23;20005;-83
2021/09/22 22:02:46;;;;;;;25.65;14.70;;;11.40;99.90;;;12.45;99.65;101353.09;6162033;23;20010;-85
2021/09/22 22:05:20;;;;;;;25.20;14.02;;;11.50;99.90;;;12.40;99.86;101342.13;6163351;23;20020;-83
2021/09/22 22:07:47;;;;;;;26.33;15.38;;;11.40;99.90;;;12.38;100.00;101348.09;6137137;23;20208;-84
2021/09/22 22:10:17;;;;;;;29.52;15.63;;;11.40;99.90;;;12.23;100.00;101339.59;6163353;23;20010;-85
2021/09/22 22:12:45;;;;;;;28.85;16.00;;;11.30;99.90;;;12.25;100.00;101326.88;6164970;23;20009;-84
2021/09/22 22:15:17;;;;;;;26.08;17.02;;;11.40;99.90;;;12.28;100.00;101317.75;6171676;23;20009;-85
2021/09/22 22:17:43;;;;;;;28.27;15.98;;;11.40;99.90;;;12.29;100.00;101322.19;6145807;23;20022;-85
2021/09/22 22:20:13;;;;;;;24.98;16.40;;;11.40;99.90;;;12.26;100.00;101313.69;6161759;23;20024;-84
2021/09/22 22:22:41;;;;;;;30.05;17.23;;;11.40;99.90;;;12.27;100.00;101304.91;6131114;23;20010;-84
2021/09/22 22:25:10;;;;;;;30.67;17.88;;;11.40;99.90;;;12.25;100.00;101307.25;6132142;23;20009;-83
2021/09/22 22:27:39;;;;;;;29.95;16.90;;;11.40;99.90;;;12.24;100.00;101300.00;6155629;23;20006;-84
2021/09/22 22:30:07;;;;;;;26.77;17.10;;;11.30;99.90;;;12.17;100.00;101294.19;6162159;23;20010;-88
2021/09/22 22:32:34;;;;;;;23.80;15.35;;;11.30;99.90;;;12.21;100.00;101292.31;6159244;23;20006;-85
2021/09/22 22:35:00;;;;;;;30.02;16.83;;;11.30;99.90;;;12.17;100.00;101288.59;6161023;23;20014;-84
2021/09/22 22:37:26;;;;;;;24.23;15.95;;;11.30;99.90;;;12.14;100.00;101303.31;6135333;23;20081;-86
2021/09/22 22:39:52;;;;;;;31.73;16.65;;;11.20;99.90;;;12.12;100.00;101306.47;6156712;23;20016;-84
2021/09/22 22:42:18;;;;;;;29.60;17.75;;;11.20;99.90;;;12.13;100.00;101293.28;6154713;23;20006;-85
2021/09/22 22:44:44;;;;;;;31.58;17.50;;;11.20;99.90;;;12.07;100.00;101297.50;6153578;23;20014;-83
2021/09/22 22:47:10;;;;;;;29.73;17.83;;;11.10;99.90;;;12.02;100.00;101297.72;6156720;23;20083;-83
2021/09/22 22:49:36;;;;;;;28.70;18.10;;;11.10;99.90;;;12.00;100.00;101297.28;6156148;23;20418;-84
2021/09/22 22:52:02;;;;;;;34.13;17.90;;;11.10;99.90;;;12.02;100.00;101300.53;6155682;23;20093;-87
2021/09/22 22:54:28;;;;;;;28.10;17.85;;;11.00;99.90;;;12.02;100.00;101309.75;6128980;23;20360;-84
2021/09/22 22:56:54;;;;;;;26.85;17.10;;;11.10;99.90;;;11.99;100.00;101304.84;6130451;23;20002;-86
2021/09/22 22:59:21;;;;;;;25.48;17.17;;;11.00;99.90;;;11.92;100.00;101289.81;6152868;23;20002;-86
2021/09/22 23:01:47;;;;;;;28.92;17.60;;;11.00;99.90;;;11.80;100.00;101287.84;6130629;23;20021;-86
2021/09/22 23:04:12;;;;;;;32.92;17.88;;;10.90;99.90;;;11.78;100.00;101295.78;6156616;23;20429;-86
2021/09/22 23:06:38;;;;;;;29.13;18.55;;;10.80;99.90;;;11.79;100.00;101296.56;6130532;23;20016;-84
2021/09/22 23:09:04;;;;;;;29.05;17.88;;;10.80;99.90;;;11.79;100.00;101304.97;6153443;23;20021;-84
2021/09/22 23:11:30;;;;;;;29.92;19.27;;;10.80;99.90;;;11.72;100.00;101294.38;6153126;23;20024;-84
2021/09/22 23:13:57;;;;;;;34.70;20.45;;;10.80;99.90;;;11.74;100.00;101294.03;6153492;23;20336;-83
2021/09/22 23:16:24;;;;;;;33.95;22.45;;;10.90;99.90;;;11.83;100.00;101281.53;6129349;23;20006;-84
2021/09/22 23:19:05;;;;;;;38.35;20.83;;;10.90;99.90;;;11.95;100.00;101287.13;6152261;23;20094;-85
2021/09/22 23:21:43;;;;;;;29.15;17.50;;;11.00;99.90;;;12.01;100.00;101279.28;6132314;23;20520;-84
2021/09/22 23:24:10;;;;;;;33.08;19.73;;;11.00;99.90;;;11.95;100.00;101287.13;6135244;23;20010;-87
2021/09/22 23:26:37;;;;;;;29.13;17.63;;;10.90;99.90;;;11.90;100.00;101276.19;6157725;23;20029;-84
2021/09/22 23:29:05;;;;;;;26.52;17.95;;;10.90;99.90;;;11.83;100.00;101270.34;6157148;23;20078;-85
2021/09/22 23:31:32;;;;;;;38.15;20.63;;;10.90;99.90;;;11.77;100.00;101259.75;6156872;23;20124;-85
2021/09/22 23:34:04;;;;;;;33.95;20.40;;;10.80;99.90;;;11.71;100.00;101247.16;6157386;23;20013;-85